Time;durP1;ratioP1;P1;durP2;ratioP2;P2;SDS_P1;SDS_P2;PMS_P1;PMS_P2;Temp;Humidity;BMP_temperature;BMP_pressure;BME280_temperature;BME280_humidity;BME280_pressure;Samples;Min_cycle;Max_cycle;Signal;HPM_P1;HPM_P2
2022/03/25 00:01:05;;;;;;;50.93;28.20;;;7.80;99.90;;;;;;5028255;28;20246;-73
2022/03/25 00:03:50;;;;;;;49.03;30.20;;;7.80;99.90;;;;;;5021157;28;20258;-72
2022/03/25 00:06:35;;;;;;;52.07;29.63;;;7.70;99.90;;;;;;5023788;28;20315;-77
2022/03/25 00:09:19;;;;;;;45.97;28.93;;;7.70;99.90;;;;;;5012176;28;20184;-73
2022/03/25 00:12:05;;;;;;;50.83;30.90;;;7.70;99.90;;;;;;5012540;28;20300;-73
2022/03/25 00:14:49;;;;;;;51.33;30.53;;;7.60;99.90;;;;;;5017910;28;20191;-72
2022/03/25 00:17:33;;;;;;;50.87;30.47;;;7.60;99.90;;;;;;5018359;28;20195;-72
2022/03/25 00:20:18;;;;;;;57.83;29.70;;;7.60;99.90;;;;;;5028521;28;20266;-72
2022/03/25 00:23:02;;;;;;;51.33;29.27;;;7.60;99.90;;;;;;5026178;28;20242;-73
2022/03/25 00:25:46;;;;;;;57.50;33.73;;;7.50;99.90;;;;;;5011892;28;20273;-73
2022/03/25 00:28:31;;;;;;;52.20;31.70;;;7.50;99.90;;;;;;5017648;28;20186;-71
2022/03/25 00:31:16;;;;;;;56.37;33.17;;;7.50;99.90;;;;;;5029515;28;20231;-73
2022/03/25 00:34:00;;;;;;;57.77;35.53;;;7.40;99.90;;;;;;5021060;28;20199;-73
2022/03/25 00:36:44;;;;;;;62.30;34.83;;;7.40;99.90;;;;;;5016174;28;20200;-73
2022/03/25 00:39:28;;;;;;;61.43;36.00;;;7.40;99.90;;;;;;4992204;28;20212;-73
2022/03/25 00:42:13;;;;;;;69.83;38.70;;;7.30;99.90;;;;;;5012628;28;20196;-73
2022/03/25 00:45:01;;;;;;;64.13;38.43;;;7.30;99.90;;;;;;5020861;28;20211;-72
2022/03/25 00:47:45;;;;;;;67.47;38.73;;;7.30;99.90;;;;;;5021828;28;20188;-73
2022/03/25 00:50:30;;;;;;;69.53;39.13;;;7.30;99.90;;;;;;5025232;28;20215;-72
2022/03/25 00:53:14;;;;;;;74.20;40.93;;;7.20;99.90;;;;;;5015068;28;20202;-74
2022/03/25 00:56:01;;;;;;;76.20;41.33;;;7.20;99.90;;;;;;5021023;28;20665;-73
2022/03/25 00:58:45;;;;;;;66.57;38.60;;;7.20;99.90;;;;;;5016962;28;20192;-74
2022/03/25 01:01:29;;;;;;;75.93;37.77;;;7.20;99.90;;;;;;5012431;28;20239;-73
2022/03/25 01:04:14;;;;;;;60.63;36.20;;;7.10;99.90;;;;;;5025649;28;20207;-73
2022/03/25 01:06:59;;;;;;;68.90;37.77;;;7.10;99.90;;;;;;5011407;28;20199;-74
2022/03/25 01:09:44;;;;;;;74.87;39.83;;;7.00;99.90;;;;;;5011345;28;20239;-72
2022/03/25 01:12:28;;;;;;;70.70;39.87;;;7.00;99.90;;;;;;5013703;28;20188;-72
2022/03/25 01:15:12;;;;;;;73.03;41.43;;;7.00;99.90;;;;;;5011158;28;20267;-72
2022/03/25 01:17:56;;;;;;;83.80;42.00;;;6.90;99.90;;;;;;5019879;28;20191;-73
2022/03/25 01:20:41;;;;;;;81.60;44.17;;;6.90;99.90;;;;;;5022962;28;20210;-73
2022/03/25 01:23:26;;;;;;;73.90;41.83;;;6.90;99.90;;;;;;5006396;28;20267;-73
2022/03/25 01:26:11;;;;;;;71.67;40.90;;;6.90;99.90;;;;;;5019099;28;20192;-72
2022/03/25 01:28:56;;;;;;;73.43;39.67;;;6.90;99.90;;;;;;5016634;28;20295;-72
2022/03/25 01:31:40;;;;;;;71.73;39.87;;;6.90;99.90;;;;;;5028194;28;20190;-70
2022/03/25 01:34:24;;;;;;;67.00;38.67;;;6.80;99.90;;;;;;5011728;28;20203;-70
2022/03/25 01:37:09;;;;;;;65.53;38.83;;;6.80;99.90;;;;;;5024522;28;20183;-70
2022/03/25 01:39:53;;;;;;;74.03;41.00;;;6.80;99.90;;;;;;5017506;28;20259;-70
2022/03/25 01:42:41;;;;;;;77.60;43.83;;;6.70;99.90;;;;;;5029199;28;20191;-70
2022/03/25 01:45:35;;;;;;;77.57;42.50;;;6.70;99.90;;;;;;5009475;28;20195;-70
2022/03/25 01:48:21;;;;;;;77.27;43.07;;;6.70;99.90;;;;;;5017033;28;20234;-71
2022/03/25 01:51:05;;;;;;;74.20;42.90;;;6.60;99.90;;;;;;5028471;28;20210;-70
2022/03/25 01:53:50;;;;;;;86.53;44.17;;;6.60;99.90;;;;;;5008385;28;20219;-70
2022/03/25 01:56:34;;;;;;;83.43;41.63;;;6.60;99.90;;;;;;5013959;28;20227;-70
2022/03/25 01:59:19;;;;;;;75.80;41.07;;;6.60;99.90;;;;;;5021004;28;20206;-70
2022/03/25 02:02:05;;;;;;;75.93;41.37;;;6.50;99.90;;;;;;5023173;28;20292;-70
2022/03/25 02:04:49;;;;;;;70.60;39.87;;;6.50;99.90;;;;;;5016947;28;20242;-70
2022/03/25 02:07:33;;;;;;;74.10;40.37;;;6.40;99.90;;;;;;5007561;28;20212;-70
2022/03/25 02:10:18;;;;;;;69.77;38.63;;;6.40;99.90;;;;;;5008647;28;20251;-70
2022/03/25 02:13:03;;;;;;;71.23;40.23;;;6.30;99.90;;;;;;5009415;28;20251;-70
2022/03/25 02:15:47;;;;;;;72.80;39.40;;;6.20;99.90;;;;;;5021995;28;20230;-70
2022/03/25 02:18:32;;;;;;;76.00;41.77;;;6.10;99.90;;;;;;5018261;28;20238;-70
2022/03/25 02:21:16;;;;;;;74.40;40.73;;;6.00;99.90;;;;;;5023917;28;20218;-70
2022/03/25 02:24:01;;;;;;;70.73;41.03;;;6.00;99.90;;;;;;5012346;28;20293;-70
2022/03/25 02:26:45;;;;;;;73.20;40.87;;;6.00;99.90;;;;;;5022602;28;20234;-70
2022/03/25 02:29:29;;;;;;;69.23;38.37;;;5.90;99.90;;;;;;5042662;28;20584;-70
2022/03/25 02:32:13;;;;;;;66.30;37.00;;;5.90;99.90;;;;;;4999979;28;20263;-70
2022/03/25 02:34:57;;;;;;;71.17;38.27;;;5.80;99.90;;;;;;5001970;28;20199;-70
2022/03/25 02:37:41;;;;;;;72.33;39.63;;;5.80;99.90;;;;;;5015415;28;20230;-70
2022/03/25 02:40:25;;;;;;;67.73;38.90;;;5.70;99.90;;;;;;5016830;28;20222;-70
2022/03/25 02:43:13;;;;;;;68.83;38.60;;;5.60;99.90;;;;;;5022861;28;20614;-70
2022/03/25 02:45:57;;;;;;;67.57;37.53;;;5.60;99.90;;;;;;5018426;28;20192;-70
2022/03/25 02:48:41;;;;;;;68.83;39.37;;;5.60;99.90;;;;;;5016537;28;20194;-70
2022/03/25 02:51:25;;;;;;;67.77;38.57;;;5.50;99.90;;;;;;5017512;28;20231;-69
2022/03/25 02:54:10;;;;;;;65.63;36.20;;;5.50;99.90;;;;;;5010181;28;20223;-71
2022/03/25 02:56:54;;;;;;;63.00;35.27;;;5.50;99.90;;;;;;5010423;28;20187;-70
2022/03/25 02:59:38;;;;;;;62.97;35.80;;;5.40;99.90;;;;;;5009644;28;20238;-70
2022/03/25 03:02:23;;;;;;;67.77;36.90;;;5.30;99.90;;;;;;5027729;28;20194;-70
2022/03/25 03:05:07;;;;;;;70.03;39.13;;;5.30;99.90;;;;;;5014561;28;20327;-70
2022/03/25 03:07:52;;;;;;;71.97;36.67;;;5.30;99.90;;;;;;5009338;28;20319;-70
2022/03/25 03:10:36;;;;;;;71.17;36.03;;;5.30;99.90;;;;;;5002102;28;20206;-71
2022/03/25 03:13:20;;;;;;;66.90;37.47;;;5.30;99.90;;;;;;5019034;28;20283;-72
2022/03/25 03:16:06;;;;;;;65.07;36.47;;;5.30;99.90;;;;;;5031446;28;20204;-72
2022/03/25 03:18:50;;;;;;;63.97;35.47;;;5.30;99.90;;;;;;5021635;28;20227;-72
2022/03/25 03:21:35;;;;;;;67.27;35.37;;;5.20;99.90;;;;;;5026981;28;20335;-72
2022/03/25 03:24:20;;;;;;;65.67;35.17;;;5.20;99.90;;;;;;5006430;28;20339;-72
2022/03/25 03:27:04;;;;;;;71.33;35.50;;;5.10;99.90;;;;;;5027098;28;20210;-72
2022/03/25 03:29:49;;;;;;;66.50;34.97;;;5.10;99.90;;;;;;5013072;28;20226;-72
2022/03/25 03:32:34;;;;;;;67.87;35.73;;;4.90;99.90;;;;;;5013678;28;20218;-72
2022/03/25 03:35:18;;;;;;;67.10;35.60;;;4.90;99.90;;;;;;5012346;28;20218;-72
2022/03/25 03:38:04;;;;;;;64.80;34.47;;;4.90;99.90;;;;;;5019522;28;20188;-72
2022/03/25 03:40:48;;;;;;;60.27;34.60;;;4.90;99.90;;;;;;5012967;28;20202;-72
2022/03/25 03:43:32;;;;;;;62.50;35.23;;;4.90;99.90;;;;;;5018871;28;20232;-72
2022/03/25 03:46:16;;;;;;;56.77;32.10;;;4.90;99.90;;;;;;5016234;28;20224;-72
2022/03/25 03:49:00;;;;;;;60.33;33.57;;;4.90;99.90;;;;;;5017563;28;20265;-72
2022/03/25 03:51:44;;;;;;;58.80;33.17;;;4.80;99.90;;;;;;5020376;28;20222;-72
2022/03/25 03:54:28;;;;;;;62.03;33.80;;;4.80;99.90;;;;;;5015790;28;20209;-72
2022/03/25 03:57:12;;;;;;;66.57;33.03;;;4.80;99.90;;;;;;5033447;28;20182;-71
2022/03/25 03:59:56;;;;;;;61.20;33.07;;;4.70;99.90;;;;;;5029738;28;20211;-72
2022/03/25 04:02:42;;;;;;;61.20;34.20;;;4.70;99.90;;;;;;5011738;28;20198;-72
2022/03/25 04:05:27;;;;;;;60.93;33.27;;;4.70;99.90;;;;;;5010775;28;20198;-72
2022/03/25 04:08:11;;;;;;;60.37;31.87;;;4.60;99.90;;;;;;5013754;28;20179;-71
2022/03/25 04:10:56;;;;;;;61.77;34.17;;;4.60;99.90;;;;;;5024828;28;20218;-72
2022/03/25 04:13:40;;;;;;;64.93;34.20;;;4.50;99.90;;;;;;5017019;28;20744;-72
2022/03/25 04:16:25;;;;;;;70.77;38.00;;;4.50;99.90;;;;;;5011822;28;20218;-72
2022/03/25 04:19:09;;;;;;;70.20;36.00;;;4.50;99.90;;;;;;5035476;28;20207;-72
2022/03/25 04:21:53;;;;;;;65.97;36.63;;;4.50;99.90;;;;;;5033153;28;20214;-72
2022/03/25 04:24:38;;;;;;;69.00;36.03;;;4.40;99.90;;;;;;5025502;28;20221;-72
2022/03/25 04:27:22;;;;;;;67.77;35.67;;;4.40;99.90;;;;;;5013715;28;20175;-72
2022/03/25 04:30:06;;;;;;;62.30;35.13;;;4.40;99.90;;;;;;5011930;28;20207;-71
2022/03/25 04:32:51;;;;;;;65.60;36.30;;;4.30;99.90;;;;;;5008737;28;20185;-72
2022/03/25 04:35:35;;;;;;;67.37;34.93;;;4.30;99.90;;;;;;5005659;28;20223;-72
2022/03/25 04:38:19;;;;;;;66.03;34.33;;;4.30;99.90;;;;;;5017735;28;20189;-72
2022/03/25 04:41:03;;;;;;;58.80;34.07;;;4.30;99.90;;;;;;5020164;28;20253;-72
2022/03/25 04:43:47;;;;;;;60.80;33.57;;;4.20;99.90;;;;;;5019214;28;20274;-72
2022/03/25 04:46:31;;;;;;;64.83;34.67;;;4.20;99.90;;;;;;5017845;28;20209;-72
2022/03/25 04:49:15;;;;;;;64.67;34.33;;;4.30;99.90;;;;;;5011298;28;20210;-72
2022/03/25 04:52:00;;;;;;;61.30;31.00;;;4.30;99.90;;;;;;5028658;28;20696;-72
2022/03/25 04:54:44;;;;;;;54.43;30.97;;;4.30;99.90;;;;;;5039598;28;20189;-72
2022/03/25 04:57:28;;;;;;;60.30;32.07;;;4.20;99.90;;;;;;5011099;28;20662;-72
2022/03/25 05:00:13;;;;;;;65.17;35.27;;;4.20;99.90;;;;;;5019103;28;20233;-72
2022/03/25 05:02:58;;;;;;;66.93;33.70;;;4.20;99.90;;;;;;5016941;28;20205;-72
2022/03/25 05:05:43;;;;;;;68.37;33.67;;;4.20;99.90;;;;;;5025191;28;20194;-72
2022/03/25 05:08:27;;;;;;;67.50;33.50;;;4.10;99.90;;;;;;5027579;28;20194;-71
2022/03/25 05:11:11;;;;;;;68.00;33.57;;;4.10;99.90;;;;;;5016954;28;20269;-72
2022/03/25 05:13:55;;;;;;;62.90;33.13;;;4.10;99.90;;;;;;5024406;28;20213;-71
2022/03/25 05:16:39;;;;;;;63.53;34.83;;;4.00;99.90;;;;;;5030617;28;20247;-72
2022/03/25 05:19:23;;;;;;;62.00;32.37;;;3.90;99.90;;;;;;5024083;28;20694;-72
2022/03/25 05:22:08;;;;;;;64.60;34.60;;;3.90;99.90;;;;;;5014935;28;20240;-72
2022/03/25 05:24:52;;;;;;;62.63;33.50;;;3.90;99.90;;;;;;5010937;28;20215;-71
2022/03/25 05:27:57;;;;;;;64.37;35.33;;;3.90;99.90;;;;;;5017613;28;20204;-72
2022/03/25 05:30:42;;;;;;;61.83;35.77;;;3.90;99.90;;;;;;5022866;28;20208;-71
2022/03/25 05:33:26;;;;;;;67.90;34.90;;;3.90;99.90;;;;;;5018965;28;20250;-71
2022/03/25 05:36:11;;;;;;;63.40;32.97;;;3.80;99.90;;;;;;5016655;28;20187;-71
2022/03/25 05:38:55;;;;;;;68.60;35.63;;;3.90;99.90;;;;;;5013030;28;20196;-71
2022/03/25 05:41:39;;;;;;;73.43;37.00;;;3.80;99.90;;;;;;5011491;28;20191;-72
2022/03/25 05:44:23;;;;;;;70.53;35.87;;;3.80;99.90;;;;;;5016947;28;20628;-72
2022/03/25 05:47:07;;;;;;;71.87;36.30;;;3.80;99.90;;;;;;5014333;28;20188;-72
2022/03/25 05:49:51;;;;;;;65.30;33.87;;;3.80;99.90;;;;;;5040940;28;20246;-72
2022/03/25 05:52:36;;;;;;;62.40;34.00;;;3.80;99.90;;;;;;5024513;28;20194;-72
2022/03/25 05:55:20;;;;;;;62.73;35.07;;;3.80;99.90;;;;;;5011462;28;20272;-72
2022/03/25 05:58:04;;;;;;;68.33;35.63;;;3.80;99.90;;;;;;5016021;28;20197;-71
2022/03/25 06:00:48;;;;;;;69.03;35.77;;;3.80;99.90;;;;;;5027809;28;20209;-72
2022/03/25 06:03:32;;;;;;;68.73;35.37;;;3.80;99.90;;;;;;5021861;28;20250;-71
2022/03/25 06:06:16;;;;;;;80.80;36.63;;;3.80;99.90;;;;;;5022672;28;20257;-72
2022/03/25 06:09:01;;;;;;;103.90;40.30;;;3.80;99.90;;;;;;5011154;28;20187;-72
2022/03/25 06:11:45;;;;;;;154.13;44.53;;;3.90;99.90;;;;;;5013697;28;20189;-71
2022/03/25 06:14:30;;;;;;;305.57;58.13;;;3.90;99.90;;;;;;5002668;28;20254;-72
2022/03/25 06:17:14;;;;;;;221.73;51.20;;;3.90;99.90;;;;;;5021456;28;20230;-72
2022/03/25 06:19:59;;;;;;;111.40;41.43;;;3.90;99.90;;;;;;5030054;28;20232;-71
2022/03/25 06:22:43;;;;;;;83.17;37.83;;;3.90;99.90;;;;;;4991405;28;20179;-71
2022/03/25 06:25:28;;;;;;;75.27;39.00;;;3.90;99.90;;;;;;5009521;28;20183;-72
2022/03/25 06:28:13;;;;;;;92.30;42.13;;;3.90;99.90;;;;;;5016438;28;20201;-72
2022/03/25 06:30:57;;;;;;;81.93;39.33;;;3.90;99.90;;;;;;5015045;28;20258;-71
2022/03/25 06:33:42;;;;;;;98.73;42.73;;;4.00;99.90;;;;;;5021529;28;20228;-72
2022/03/25 06:36:26;;;;;;;98.70;44.33;;;4.00;99.90;;;;;;5014648;28;20621;-72
2022/03/25 06:39:10;;;;;;;90.07;42.60;;;4.00;99.90;;;;;;5025832;28;20199;-72
2022/03/25 06:41:54;;;;;;;105.43;45.43;;;4.00;99.90;;;;;;5031881;28;20190;-72
2022/03/25 06:44:38;;;;;;;94.47;45.33;;;4.00;99.90;;;;;;5008628;28;20216;-72
2022/03/25 06:47:22;;;;;;;90.70;45.17;;;4.10;99.90;;;;;;5017154;28;20217;-72
2022/03/25 06:50:08;;;;;;;88.60;45.33;;;4.20;99.90;;;;;;5031475;28;20297;-72
2022/03/25 06:52:53;;;;;;;83.10;45.20;;;4.20;99.90;;;;;;5012757;28;20263;-72
2022/03/25 06:55:39;;;;;;;91.30;47.30;;;4.20;99.90;;;;;;5015912;28;20268;-72
2022/03/25 06:58:24;;;;;;;94.53;47.17;;;4.30;99.90;;;;;;5013242;28;20205;-72
2022/03/25 07:01:09;;;;;;;97.60;48.73;;;4.30;99.90;;;;;;5000913;28;20252;-71
2022/03/25 07:03:54;;;;;;;149.40;54.87;;;4.30;99.90;;;;;;5034736;28;20592;-72
2022/03/25 07:06:38;;;;;;;136.10;55.23;;;4.40;99.90;;;;;;5017629;28;20193;-72
2022/03/25 07:09:23;;;;;;;125.60;58.83;;;4.50;99.90;;;;;;5009598;28;20188;-72
2022/03/25 07:12:08;;;;;;;140.80;56.47;;;4.50;99.90;;;;;;5029935;28;20279;-72
2022/03/25 07:14:52;;;;;;;143.13;58.53;;;4.60;99.90;;;;;;5018350;28;20252;-71
2022/03/25 07:17:37;;;;;;;144.57;59.83;;;4.60;99.90;;;;;;5039703;28;20217;-72
2022/03/25 07:20:25;;;;;;;138.30;60.40;;;4.60;99.90;;;;;;5017853;28;20273;-72
2022/03/25 07:23:10;;;;;;;119.63;56.93;;;4.70;99.90;;;;;;5012532;28;20202;-72
2022/03/25 07:25:54;;;;;;;104.93;56.43;;;4.80;99.90;;;;;;5008458;28;20222;-71
2022/03/25 07:28:38;;;;;;;119.87;58.60;;;4.90;99.90;;;;;;5021449;28;20190;-72
2022/03/25 07:31:28;;;;;;;121.17;59.87;;;5.00;99.90;;;;;;5010281;28;20273;-72
2022/03/25 07:34:12;;;;;;;111.50;57.67;;;5.00;99.90;;;;;;5018640;28;20198;-72
2022/03/25 07:36:56;;;;;;;117.57;59.57;;;5.20;99.90;;;;;;5017581;28;20244;-72
2022/03/25 07:39:42;;;;;;;113.93;56.30;;;5.30;99.90;;;;;;5017680;28;20296;-71
2022/03/25 07:42:26;;;;;;;115.77;57.87;;;5.30;99.90;;;;;;5018954;28;20244;-71
2022/03/25 07:45:13;;;;;;;123.23;61.73;;;5.40;99.90;;;;;;5020643;28;20223;-71
2022/03/25 07:47:57;;;;;;;115.00;59.23;;;5.50;99.90;;;;;;5018692;28;20191;-71
2022/03/25 07:50:42;;;;;;;115.60;59.17;;;5.60;99.90;;;;;;5020271;28;20211;-72
2022/03/25 07:53:26;;;;;;;122.27;60.97;;;5.70;99.90;;;;;;5021022;28;20194;-71
2022/03/25 07:56:11;;;;;;;130.53;63.03;;;5.70;99.90;;;;;;5027186;28;20595;-71
2022/03/25 07:58:55;;;;;;;119.13;58.67;;;5.90;99.90;;;;;;5023539;28;20738;-72
2022/03/25 08:01:39;;;;;;;118.40;60.00;;;5.90;99.90;;;;;;5019502;28;20198;-71
2022/03/25 08:04:26;;;;;;;113.63;58.03;;;6.10;99.90;;;;;;5009119;28;20271;-71
2022/03/25 08:07:11;;;;;;;111.77;58.10;;;6.20;99.90;;;;;;5021929;28;20278;-72
2022/03/25 08:09:55;;;;;;;104.90;56.63;;;6.30;99.90;;;;;;5018006;28;20216;-72
2022/03/25 08:12:39;;;;;;;108.57;55.10;;;6.50;99.90;;;;;;5013076;28;20254;-71
2022/03/25 08:15:27;;;;;;;97.20;52.70;;;6.60;99.90;;;;;;5012749;28;20219;-71
2022/03/25 08:18:13;;;;;;;94.87;50.67;;;6.60;99.90;;;;;;5016690;28;20224;-72
2022/03/25 08:20:57;;;;;;;92.90;52.83;;;6.70;99.90;;;;;;5013991;28;20220;-72
2022/03/25 08:29:48;;;;;;;92.83;47.60;;;6.90;99.90;;;;;;5015451;28;20248;-70
2022/03/25 08:32:33;;;;;;;84.53;45.40;;;7.00;99.90;;;;;;5007740;28;20191;-69
2022/03/25 08:35:17;;;;;;;84.10;47.57;;;7.10;99.90;;;;;;5016537;28;20340;-69
2022/03/25 08:38:02;;;;;;;78.17;42.87;;;7.20;99.90;;;;;;5031422;28;20199;-69
2022/03/25 08:40:47;;;;;;;80.77;45.20;;;7.30;99.90;;;;;;5015975;28;20231;-70
2022/03/25 08:43:31;;;;;;;86.47;46.93;;;7.40;99.90;;;;;;5011095;28;20629;-71
2022/03/25 08:46:15;;;;;;;86.77;46.57;;;7.50;99.90;;;;;;5015275;28;20180;-69
2022/03/25 08:49:00;;;;;;;83.50;47.50;;;7.60;99.90;;;;;;5013504;28;20184;-69
2022/03/25 08:51:44;;;;;;;83.63;46.03;;;7.70;99.90;;;;;;5006533;28;20191;-69
2022/03/25 08:54:28;;;;;;;87.27;47.47;;;7.70;99.90;;;;;;5016549;28;20267;-69
2022/03/25 08:57:15;;;;;;;90.00;48.80;;;7.90;99.90;;;;;;5021113;28;20690;-71
2022/03/25 09:00:00;;;;;;;87.83;48.10;;;7.90;99.90;;;;;;5010915;28;20243;-70
2022/03/25 09:02:45;;;;;;;83.33;46.77;;;8.10;99.90;;;;;;5016136;28;20555;-69
2022/03/25 09:05:29;;;;;;;87.30;47.47;;;8.20;99.90;;;;;;5011353;28;20195;-70
2022/03/25 09:08:15;;;;;;;75.90;45.10;;;8.30;99.90;;;;;;5029843;28;20692;-69
2022/03/25 09:10:59;;;;;;;79.27;44.93;;;8.50;99.90;;;;;;5018636;28;20290;-69
2022/03/25 09:13:43;;;;;;;76.37;44.57;;;8.70;99.90;;;;;;5024890;28;20259;-70
2022/03/25 09:16:27;;;;;;;76.53;44.17;;;8.80;99.90;;;;;;5007322;28;20226;-69
2022/03/25 09:19:12;;;;;;;76.40;41.57;;;8.90;99.90;;;;;;5018152;28;20204;-69
2022/03/25 09:21:56;;;;;;;77.43;44.00;;;9.00;99.90;;;;;;5015641;28;20199;-69
2022/03/25 09:24:40;;;;;;;73.70;41.20;;;9.10;99.90;;;;;;5012735;28;20266;-69
2022/03/25 09:27:24;;;;;;;71.80;40.70;;;9.20;99.90;;;;;;5016350;28;20175;-69
2022/03/25 09:30:09;;;;;;;66.57;39.23;;;9.30;99.90;;;;;;5020755;28;20226;-69
2022/03/25 09:32:54;;;;;;;71.00;41.53;;;9.40;99.90;;;;;;5016546;28;20230;-69
2022/03/25 09:35:40;;;;;;;65.17;39.83;;;9.50;99.90;;;;;;5014250;28;20227;-70
2022/03/25 09:38:26;;;;;;;67.93;38.60;;;9.60;99.90;;;;;;5018857;28;20217;-71
2022/03/25 09:41:11;;;;;;;67.57;39.97;;;9.70;99.90;;;;;;5015049;28;20254;-69
2022/03/25 09:43:55;;;;;;;61.33;36.33;;;9.80;99.90;;;;;;5015623;28;20219;-70
2022/03/25 09:46:42;;;;;;;60.43;35.77;;;10.00;99.90;;;;;;4997330;28;20188;-69
2022/03/25 09:49:27;;;;;;;55.20;31.70;;;10.10;99.90;;;;;;5021755;28;20207;-69
2022/03/25 09:52:11;;;;;;;55.20;31.90;;;10.20;99.90;;;;;;5016054;28;20190;-70
2022/03/25 09:54:55;;;;;;;52.00;28.53;;;10.30;99.90;;;;;;5017356;28;20200;-70
2022/03/25 09:57:41;;;;;;;51.53;27.37;;;10.40;99.90;;;;;;5021795;28;20190;-70
2022/03/25 10:00:25;;;;;;;43.57;25.77;;;10.50;99.90;;;;;;5015934;28;20251;-70
2022/03/25 10:03:09;;;;;;;45.00;26.60;;;10.50;99.90;;;;;;5028425;28;20195;-69
2022/03/25 10:05:58;;;;;;;41.10;24.77;;;10.70;99.90;;;;;;5027925;28;20195;-69
2022/03/25 10:08:43;;;;;;;48.17;27.93;;;10.80;99.90;;;;;;5017608;28;20234;-70
2022/03/25 10:11:32;;;;;;;48.13;28.40;;;11.00;99.90;;;;;;5017118;28;20255;-70
2022/03/25 10:14:18;;;;;;;48.00;27.93;;;11.10;99.90;;;;;;5029073;28;20191;-69
2022/03/25 10:17:08;;;;;;;39.50;23.93;;;11.20;99.90;;;;;;5015693;28;20199;-71
2022/03/25 10:19:53;;;;;;;41.93;24.73;;;11.20;99.90;;;;;;5021349;28;20297;-70
2022/03/25 10:22:37;;;;;;;44.30;25.07;;;11.40;99.90;;;;;;5014886;28;20204;-69
2022/03/25 10:25:51;;;;;;;46.03;25.77;;;11.40;99.90;;;;;;5012395;28;20230;-70
2022/03/25 10:28:40;;;;;;;43.13;27.03;;;11.50;99.90;;;;;;5012188;28;20610;-69
2022/03/25 10:31:24;;;;;;;43.03;26.27;;;11.70;99.90;;;;;;5018449;28;20235;-70
2022/03/25 10:34:18;;;;;;;49.83;29.23;;;11.70;99.90;;;;;;5005944;28;20187;-70
2022/03/25 10:37:05;;;;;;;50.77;29.93;;;11.70;99.90;;;;;;5000101;28;20200;-70
2022/03/25 10:39:54;;;;;;;47.00;27.33;;;11.70;99.90;;;;;;5021001;28;20710;-70
2022/03/25 10:43:02;;;;;;;43.67;26.40;;;11.80;99.90;;;;;;5014272;28;20586;-70
2022/03/25 10:45:47;;;;;;;42.77;25.13;;;11.90;99.90;;;;;;5011510;28;20195;-69
2022/03/25 10:48:31;;;;;;;42.67;23.90;;;12.10;99.90;;;;;;5003123;28;20230;-70
2022/03/25 10:51:17;;;;;;;41.90;23.57;;;12.20;99.90;;;;;;5011175;28;20214;-69
2022/03/25 10:54:09;;;;;;;39.77;23.23;;;12.20;99.90;;;;;;5015875;28;20200;-70
2022/03/25 10:56:55;;;;;;;39.03;21.93;;;12.30;99.90;;;;;;5011954;28;20188;-69
2022/03/25 10:59:39;;;;;;;36.07;22.63;;;12.40;99.90;;;;;;5009930;28;20219;-70
2022/03/25 11:02:24;;;;;;;41.37;22.30;;;12.50;99.90;;;;;;5016706;28;20175;-70
2022/03/25 11:05:09;;;;;;;34.27;22.47;;;12.50;99.90;;;;;;5009347;28;20262;-69
2022/03/25 11:07:53;;;;;;;36.57;21.30;;;12.50;99.90;;;;;;5018699;28;20196;-69
2022/03/25 11:10:38;;;;;;;36.70;21.97;;;12.50;99.90;;;;;;5009825;28;20215;-70
2022/03/25 11:13:23;;;;;;;34.17;21.37;;;12.60;99.90;;;;;;5009886;28;20180;-70
2022/03/25 11:16:08;;;;;;;34.13;20.50;;;12.60;99.90;;;;;;5020514;28;20191;-70
2022/03/25 11:18:54;;;;;;;35.57;20.27;;;12.70;99.90;;;;;;5014535;28;20196;-69
2022/03/25 11:21:44;;;;;;;33.30;19.60;;;12.80;99.90;;;;;;5020325;28;20307;-70
2022/03/25 11:24:47;;;;;;;34.00;18.97;;;13.00;99.90;;;;;;5003463;28;20219;-70
2022/03/25 11:27:34;;;;;;;29.90;17.60;;;13.00;99.90;;;;;;5008733;28;20176;-69
2022/03/25 11:30:19;;;;;;;22.43;12.53;;;13.10;99.90;;;;;;5009030;28;20208;-70
2022/03/25 11:33:06;;;;;;;27.03;15.27;;;13.20;99.90;;;;;;5009762;28;20216;-70
2022/03/25 11:36:12;;;;;;;26.33;13.83;;;13.20;99.90;;;;;;5017357;28;20218;-70
2022/03/25 11:39:15;;;;;;;32.57;16.67;;;13.20;99.90;;;;;;5014015;28;20219;-70
2022/03/25 11:42:04;;;;;;;32.10;16.90;;;13.30;99.90;;;;;;5021895;28;20195;-69
2022/03/25 11:44:48;;;;;;;29.03;15.40;;;13.40;99.90;;;;;;5019674;28;20561;-69
2022/03/25 11:47:32;;;;;;;25.27;13.73;;;13.40;99.90;;;;;;5013843;28;20196;-70
2022/03/25 11:50:39;;;;;;;25.23;15.10;;;13.40;99.90;;;;;;5014923;28;20215;-70
2022/03/25 11:53:23;;;;;;;25.03;14.40;;;13.50;99.90;;;;;;5019077;28;20186;-70
2022/03/25 11:56:12;;;;;;;23.93;13.40;;;13.60;99.90;;;;;;5024535;28;20192;-69
2022/03/25 11:59:00;;;;;;;26.20;14.17;;;13.70;99.90;;;;;;5013849;28;20196;-70
2022/03/25 12:01:44;;;;;;;28.40;14.80;;;13.80;99.90;;;;;;5025045;28;20226;-70
2022/03/25 12:04:35;;;;;;;22.80;15.17;;;13.80;99.90;;;;;;5020005;28;20210;-70
2022/03/25 12:07:19;;;;;;;32.50;16.07;;;13.80;99.90;;;;;;5012394;28;20188;-70
2022/03/25 12:10:06;;;;;;;26.30;16.13;;;13.80;99.90;;;;;;5018312;28;20211;-70
2022/03/25 12:12:55;;;;;;;30.63;16.30;;;13.80;99.90;;;;;;5026648;28;20200;-70
2022/03/25 12:15:41;;;;;;;27.30;16.00;;;13.80;99.90;;;;;;5014779;28;20196;-70
2022/03/25 12:18:45;;;;;;;26.53;15.87;;;13.90;99.90;;;;;;5026317;28;20303;-70
2022/03/25 12:21:49;;;;;;;29.70;16.80;;;14.00;99.90;;;;;;5021440;28;20295;-70
2022/03/25 12:24:34;;;;;;;27.77;16.20;;;14.10;99.90;;;;;;5018211;28;20249;-71
2022/03/25 12:27:20;;;;;;;27.93;16.07;;;14.10;99.90;;;;;;5011189;28;20176;-70
2022/03/25 12:30:06;;;;;;;32.03;16.13;;;14.20;99.90;;;;;;5005691;28;20244;-70
2022/03/25 12:32:50;;;;;;;30.87;16.33;;;14.20;99.90;;;;;;5020996;28;20653;-70
2022/03/25 12:35:37;;;;;;;28.60;15.77;;;14.40;99.90;;;;;;4996605;28;20196;-70
2022/03/25 12:38:25;;;;;;;46.87;16.93;;;14.30;99.90;;;;;;5012721;28;20172;-70
2022/03/25 12:41:09;;;;;;;26.90;14.97;;;14.30;99.90;;;;;;5023115;28;20269;-69
2022/03/25 12:44:01;;;;;;;26.37;15.07;;;14.40;99.90;;;;;;5019377;28;20730;-70
2022/03/25 12:46:45;;;;;;;27.83;14.77;;;14.50;99.90;;;;;;5007917;28;20663;-70
2022/03/25 12:49:31;;;;;;;27.83;14.60;;;14.50;99.90;;;;;;5024424;28;20254;-70
2022/03/25 12:52:15;;;;;;;28.17;16.30;;;14.60;99.90;;;;;;5010906;28;20211;-70
2022/03/25 12:55:15;;;;;;;29.47;16.23;;;14.60;99.90;;;;;;5021455;28;20195;-70
2022/03/25 12:58:05;;;;;;;28.20;15.97;;;14.60;99.90;;;;;;5001187;28;20227;-69
2022/03/25 13:00:52;;;;;;;34.23;16.00;;;14.70;99.90;;;;;;5016586;28;20254;-70
2022/03/25 13:03:36;;;;;;;27.53;16.03;;;14.70;99.90;;;;;;5028228;28;20343;-70
2022/03/25 13:06:21;;;;;;;25.97;16.10;;;14.80;99.90;;;;;;5020001;28;20214;-70
2022/03/25 13:09:05;;;;;;;28.63;15.50;;;14.90;99.90;;;;;;5013278;28;20196;-71
2022/03/25 13:11:56;;;;;;;29.80;15.97;;;15.00;99.90;;;;;;5021699;28;20195;-70
2022/03/25 13:14:52;;;;;;;30.40;16.67;;;15.00;99.90;;;;;;5026102;28;20215;-70
2022/03/25 13:17:45;;;;;;;28.27;16.43;;;15.10;99.90;;;;;;5018970;28;20295;-69
2022/03/25 13:20:33;;;;;;;30.43;16.87;;;15.00;99.90;;;;;;5017207;28;20247;-70
2022/03/25 13:23:25;;;;;;;33.47;17.13;;;15.10;99.90;;;;;;5011293;28;20619;-70
2022/03/25 13:26:10;;;;;;;25.00;15.63;;;15.20;99.90;;;;;;5015278;28;20204;-70
2022/03/25 13:28:54;;;;;;;30.93;15.80;;;15.20;99.90;;;;;;5017266;28;20184;-70
2022/03/25 13:31:38;;;;;;;24.33;14.30;;;15.20;99.90;;;;;;5002517;28;20283;-70
2022/03/25 13:34:22;;;;;;;29.33;14.97;;;15.30;99.90;;;;;;5010970;28;20200;-69
2022/03/25 13:37:06;;;;;;;25.37;14.10;;;15.20;99.90;;;;;;5026627;28;20227;-70
2022/03/25 13:39:50;;;;;;;24.87;15.03;;;15.20;99.90;;;;;;5014945;28;20235;-70
2022/03/25 13:42:36;;;;;;;26.37;14.53;;;15.30;99.90;;;;;;5010522;28;20187;-71
2022/03/25 13:45:20;;;;;;;32.20;14.13;;;15.40;99.90;;;;;;5027556;28;20216;-70
2022/03/25 13:48:14;;;;;;;27.07;15.00;;;15.40;99.90;;;;;;5022565;28;20195;-71
2022/03/25 13:50:59;;;;;;;24.53;13.93;;;15.40;99.90;;;;;;5024679;28;20287;-70
2022/03/25 13:53:43;;;;;;;35.33;15.60;;;15.40;99.90;;;;;;5012399;28;20243;-71
2022/03/25 13:56:35;;;;;;;24.60;15.43;;;15.40;99.90;;;;;;5019753;28;20683;-71
2022/03/25 13:59:27;;;;;;;24.67;16.33;;;15.40;99.90;;;;;;5027348;28;20196;-71
2022/03/25 14:02:26;;;;;;;26.67;15.20;;;15.50;99.90;;;;;;5025105;28;20326;-70
2022/03/25 14:05:14;;;;;;;29.47;16.60;;;15.60;99.90;;;;;;5029761;28;20261;-72
2022/03/25 14:07:59;;;;;;;31.43;15.70;;;15.60;99.90;;;;;;5017820;28;20200;-72
2022/03/25 14:10:58;;;;;;;31.60;16.27;;;15.60;99.90;;;;;;5040236;28;20283;-71
2022/03/25 14:14:02;;;;;;;33.97;16.67;;;15.60;99.90;;;;;;5014421;28;20187;-72